Time;durP1;ratioP1;P1;durP2;ratioP2;P2;SDS_P1;SDS_P2;PMS_P1;PMS_P2;Temp;Humidity;BMP_temperature;BMP_pressure;BME280_temperature;BME280_humidity;BME280_pressure;Samples;Min_cycle;Max_cycle;Signal;HPM_P1;HPM_P2
2022/04/07 00:03:08;;;;;;;;;;;;;;;8.77;85.44336;98957.19;;;;-82
2022/04/07 00:08:08;;;;;;;;;;;;;;;8.77;85.54199;98946;;;;-82
2022/04/07 00:09:31;;;;;;;14.9;2.1;;;;;;;;;;;;;-83
2022/04/07 00:13:10;;;;;;;;;;;;;;;8.78;85.70703;98952.44;;;;-82
2022/04/07 00:18:10;;;;;;;;;;;;;;;8.79;85.2793;98935.33;;;;-82
2022/04/07 00:23:09;;;;;;;;;;;;;;;8.81;85.38281;98930.23;;;;-85
2022/04/07 00:28:11;;;;;;;;;;;;;;;8.82;85.18555;98919.62;;;;-81
2022/04/07 00:33:09;;;;;;;;;;;;;;;8.83;85.00293;98915.93;;;;-82
2022/04/07 00:38:08;;;;;;;;;;;;;;;8.83;84.98047;98895.36;;;;-82
2022/04/07 00:39:28;;;;;;;13.5;2.1;;;;;;;;;;;;;-82
2022/04/07 00:43:10;;;;;;;;;;;;;;;8.82;85.20801;98890.42;;;;-82
2022/04/07 00:48:11;;;;;;;;;;;;;;;8.81;85.24121;98874.61;;;;-82
2022/04/07 00:53:08;;;;;;;;;;;;;;;8.81;84.92188;98871.16;;;;-82
2022/04/07 00:58:11;;;;;;;;;;;;;;;8.82;84.91113;98852.82;;;;-83
2022/04/07 01:03:09;;;;;;;;;;;;;;;8.8;84.80859;98886.73;;;;-82
2022/04/07 01:08:09;;;;;;;;;;;;;;;8.81;84.58105;98849.55;;;;-83
2022/04/07 01:09:30;;;;;;;17.2;2.5;;;;;;;;;;;;;-83
2022/04/07 01:13:11;;;;;;;;;;;;;;;8.82;84.54785;98829.63;;;;-81
2022/04/07 01:18:09;;;;;;;;;;;;;;;8.81;84.5918;98820.19;;;;-81
2022/04/07 01:23:11;;;;;;;;;;;;;;;8.8;84.48047;98799.58;;;;-82
2022/04/07 01:28:08;;;;;;;;;;;;;;;8.79;84.34473;98790.03;;;;-82
2022/04/07 01:33:09;;;;;;;;;;;;;;;8.77;84.15527;98799.25;;;;-82
2022/04/07 01:38:09;;;;;;;;;;;;;;;8.76;84.09668;98773.67;;;;-82
2022/04/07 01:39:30;;;;;;;14.1;2.4;;;;;;;;;;;;;-82
2022/04/07 01:43:11;;;;;;;;;;;;;;;8.78;84.07813;98783.64;;;;-84
2022/04/07 01:48:12;;;;;;;;;;;;;;;8.8;84.12793;98748.58;;;;-82
2022/04/07 01:53:09;;;;;;;;;;;;;;;8.83;84.47461;98746.05;;;;-82
2022/04/07 01:58:16;;;;;;;;;;;;;;;8.85;84.4668;98724.44;;;;-83
2022/04/07 02:03:14;;;;;;;;;;;;;;;8.86;84.69922;98708.81;;;;-81
2022/04/07 02:08:11;;;;;;;;;;;;;;;8.86;84.31445;98692.28;;;;-82
2022/04/07 02:09:33;;;;;;;20;2.8;;;;;;;;;;;;;-82
2022/04/07 02:13:09;;;;;;;;;;;;;;;8.87;84.23926;98697.47;;;;-84
2022/04/07 02:18:10;;;;;;;;;;;;;;;8.87;84.32715;98702.08;;;;-83
2022/04/07 02:23:08;;;;;;;;;;;;;;;8.86;84.52344;98682.36;;;;-81
2022/04/07 02:28:10;;;;;;;;;;;;;;;8.86;84.52344;98682.92;;;;-80
2022/04/07 02:38:09;;;;;;;;;;;;;;;8.84;84.28906;98662.83;;;;-81
2022/04/07 02:39:30;;;;;;;26.3;3.2;;;;;;;;;;;;;-83
2022/04/07 02:43:08;;;;;;;;;;;;;;;8.82;84.13086;98645.47;;;;-81
2022/04/07 02:48:09;;;;;;;;;;;;;;;8.83;83.97754;98651.81;;;;-81
2022/04/07 02:53:09;;;;;;;;;;;;;;;8.84;84.00293;98639.54;;;;-82
2022/04/07 02:58:13;;;;;;;;;;;;;;;8.83;84.02344;98616.81;;;;-81
2022/04/07 03:03:10;;;;;;;;;;;;;;;8.84;84.00293;98600.39;;;;-81
2022/04/07 03:08:09;;;;;;;;;;;;;;;8.83;84.05566;98569.84;;;;-81
2022/04/07 03:09:31;;;;;;;27;3.7;;;;;;;;;;;;;-81
2022/04/07 03:13:10;;;;;;;;;;;;;;;8.84;83.92578;98585.02;;;;-81
2022/04/07 03:18:15;;;;;;;;;;;;;;;8.84;83.94727;98573.98;;;;-82
2022/04/07 03:23:15;;;;;;;;;;;;;;;8.84;84.02441;98565.43;;;;-82
2022/04/07 03:28:08;;;;;;;;;;;;;;;8.84;84.21191;98550.06;;;;-81
2022/04/07 03:33:12;;;;;;;;;;;;;;;8.84;84.43164;98522.89;;;;-81
2022/04/07 03:38:13;;;;;;;;;;;;;;;8.82;84.64648;98506.43;;;;-82
2022/04/07 03:39:34;;;;;;;22.6;3.1;;;;;;;;;;;;;-82
2022/04/07 03:43:09;;;;;;;;;;;;;;;8.8;84.94043;98474.13;;;;-83
2022/04/07 03:48:17;;;;;;;;;;;;;;;8.76;85.4502;98460.13;;;;-81
2022/04/07 03:53:09;;;;;;;;;;;;;;;8.74;85.67773;98441.25;;;;-81
2022/04/07 03:58:11;;;;;;;;;;;;;;;8.71;86.09082;98417.32;;;;-82
2022/04/07 04:03:13;;;;;;;;;;;;;;;8.68;86.11816;98430.98;;;;-80
2022/04/07 04:08:14;;;;;;;;;;;;;;;8.64;86.58203;98388.83;;;;-81
2022/04/07 04:09:32;;;;;;;19.2;2.4;;;;;;;;;;;;;-81
2022/04/07 04:13:09;;;;;;;;;;;;;;;8.6;86.86035;98356.76;;;;-81
2022/04/07 04:18:09;;;;;;;;;;;;;;;8.56;87.21387;98321.07;;;;-82
2022/04/07 04:23:14;;;;;;;;;;;;;;;8.54;87.57324;98331.09;;;;-82
2022/04/07 04:28:19;;;;;;;;;;;;;;;8.5;88.15918;98341.52;;;;-82
2022/04/07 04:33:15;;;;;;;;;;;;;;;8.49;87.5625;98466.23;;;;-83
2022/04/07 04:38:10;;;;;;;;;;;;;;;8.24;85.59082;98476.67;;;;-83
2022/04/07 04:39:40;;;;;;;5.6;1.3;;;;;;;;;;;;;-85
2022/04/07 04:43:10;;;;;;;;;;;;;;;7.8;84.54785;98442.2;;;;-84
2022/04/07 04:48:11;;;;;;;;;;;;;;;7.35;84.38281;98425.83;;;;-83
2022/04/07 04:53:26;;;;;;;;;;;;;;;7.04;84.88281;98459.99;;;;-84
2022/04/07 04:58:18;;;;;;;;;;;;;;;6.83;85.06348;98431.95;;;;-85
2022/04/07 05:03:10;;;;;;;;;;;;;;;6.67;85.17188;98425.11;;;;-84
2022/04/07 05:08:09;;;;;;;;;;;;;;;6.48;85.01563;98391.28;;;;-84
2022/04/07 05:09:39;;;;;;;5.2;0.9;;;;;;;;;;;;;-85
2022/04/07 05:13:15;;;;;;;;;;;;;;;6.32;85.03809;98370.55;;;;-84
2022/04/07 05:18:19;;;;;;;;;;;;;;;6.18;85.06641;98382.48;;;;-85
2022/04/07 05:23:17;;;;;;;;;;;;;;;6.05;85.00684;98393.3;;;;-85
2022/04/07 05:28:21;;;;;;;;;;;;;;;5.93;85.01758;98411.19;;;;-86
2022/04/07 05:33:27;;;;;;;;;;;;;;;5.76;84.80859;98429.12;;;;-85
2022/04/07 05:38:10;;;;;;;;;;;;;;;5.65;84.91699;98426.56;;;;-83
2022/04/07 05:39:37;;;;;;;5.2;1.1;;;;;;;;;;;;;-85
2022/04/07 05:43:21;;;;;;;;;;;;;;;;;;;;;
2022/04/07 05:48:25;;;;;;;;;;;;;;;5.47;85.21094;98414.69;;;;-86
2022/04/07 05:53:14;;;;;;;;;;;;;;;5.41;85.49414;98384.8;;;;-84
2022/04/07 06:02:46;;;;;;;;;;;;;;;5.39;86.19824;98328.75;;;;-79
2022/04/07 06:07:40;;;;;;;;;;;;;;;5.41;86.53125;98335.06;;;;-77
2022/04/07 06:09:35;;;;;;;5.1;1;;;;;;;;;;;;;-76
2022/04/07 06:12:38;;;;;;;;;;;;;;;5.46;86.69336;98316.64;;;;-78
2022/04/07 06:17:41;;;;;;;;;;;;;;;5.51;86.73535;98301.31;;;;-79
2022/04/07 06:22:39;;;;;;;;;;;;;;;5.53;86.7168;98250.25;;;;-77
2022/04/07 06:27:44;;;;;;;;;;;;;;;5.54;86.81836;98217.27;;;;-77
2022/04/07 06:32:44;;;;;;;;;;;;;;;5.54;86.64258;98229.27;;;;-76
2022/04/07 06:37:54;;;;;;;;;;;;;;;5.55;86.61133;98199.58;;;;-77
2022/04/07 06:39:34;;;;;;;4.3;0.6;;;;;;;;;;;;;-78
2022/04/07 06:42:35;;;;;;;;;;;;;;;5.56;86.5498;98229.66;;;;-77
2022/04/07 06:52:34;;;;;;;;;;;;;;;5.61;86.52637;98201.89;;;;-76
2022/04/07 06:57:53;;;;;;;;;;;;;;;5.61;86.66797;98188.63;;;;-77
2022/04/07 07:02:38;;;;;;;;;;;;;;;5.63;86.71289;98197.66;;;;-77
2022/04/07 07:09:43;;;;;;;4.4;0.7;;;;;;;;;;;;;-78
2022/04/07 07:29:12;;;;;;;;;;;;;;;6.01;86.44238;98184.91;;;;-77
2022/04/07 07:36:26;;;;;;;;;;;;;;;6.13;86.1377;98174.66;;;;-85
2022/04/07 07:39:36;;;;;;;3.6;0.7;;;;;;;;;;;;;-87
2022/04/07 07:48:39;;;;;;;;;;;;;;;6.58;85.2959;98166.74;;;;-78
2022/04/07 07:52:00;;;;;;;;;;;;;;;6.76;85.32227;98158.27;;;;-84
2022/04/07 08:07:00;;;;;;;;;;;;;;;7.77;83.72949;98122.58;;;;-79
2022/04/07 08:13:29;;;;;;;;;;;;;;;8.22;82.70508;98136.44;;;;-82
2022/04/07 08:17:16;;;;;;;;;;;;;;;8.35;82.06055;98130.88;;;;-80
2022/04/07 08:22:12;;;;;;;;;;;;;;;8.52;81.63965;98141.64;;;;-77
2022/04/07 08:27:30;;;;;;;;;;;;;;;;;;;;;
2022/04/07 08:32:08;;;;;;;;;;;;;;;8.72;80.6416;98121.73;;;;-78
2022/04/07 08:37:27;;;;;;;;;;;;;;;8.67;80.52539;98137.03;;;;-79
2022/04/07 08:39:49;;;;;;;9.8;1.3;;;;;;;;;;;;;-81
2022/04/07 09:09:57;;;;;;;11.7;1.8;;;;;;;;;;;;;-83
2022/04/07 09:18:05;;;;;;;;;;;;;;;;;;;;;
2022/04/07 09:28:11;;;;;;;;;;;;;;;;;;;;;
2022/04/07 09:39:56;;;;;;;;;;;;;;;;;;;;;
2022/04/07 09:45:37;;;;;;;;;;;;;;;9.42;73.63672;98178.1;;;;-82
2022/04/07 09:50:44;;;;;;;;;;;;;;;9.28;73.49316;98163.77;;;;-83
2022/04/07 09:59:28;;;;;;;;;;;;;;;9.1;73.90332;98175.51;;;;-82
2022/04/07 10:05:02;;;;;;;;;;;;;;;8.99;74.27148;98169.48;;;;-80
2022/04/07 10:23:25;;;;;;;;;;;;;;;9.18;73.96094;98186.23;;;;-82
2022/04/07 10:29:06;;;;;;;;;;;;;;;9.31;74.51465;98178.73;;;;-82
2022/04/07 10:39:32;;;;;;;;;;;;;;;9.8;72.5166;98186.95;;;;-84
2022/04/07 10:39:55;;;;;;;12.4;2.2;;;;;;;;;;;;;-84
2022/04/07 10:44:50;;;;;;;;;;;;;;;9.92;71.83984;98187.53;;;;-84
2022/04/07 11:02:01;;;;;;;;;;;;;;;10.19;70.44141;98199.74;;;;-83
2022/04/07 11:10:00;;;;;;;13.5;1.8;;;;;;;;;;;;;-82
2022/04/07 11:15:16;;;;;;;;;;;;;;;10.58;68.08594;98173.48;;;;-83
2022/04/07 11:20:17;;;;;;;;;;;;;;;10.65;67.99707;98174.98;;;;-84
2022/04/07 11:25:21;;;;;;;;;;;;;;;10.76;67.23633;98164.58;;;;-82
2022/04/07 11:30:12;;;;;;;;;;;;;;;10.82;66.61133;98179.02;;;;-82
2022/04/07 11:40:00;;;;;;;10.9;1.7;;;;;;;;;;;;;-82
2022/04/07 11:48:58;;;;;;;;;;;;;;;11.12;65.7002;98205.56;;;;-82
2022/04/07 11:53:40;;;;;;;;;;;;;;;11.19;65.48828;98198.84;;;;-82
2022/04/07 11:59:01;;;;;;;;;;;;;;;11.2;65.89063;98209.45;;;;-81
2022/04/07 12:03:45;;;;;;;;;;;;;;;11.21;64.81152;98230.49;;;;-82
2022/04/07 12:08:54;;;;;;;;;;;;;;;11.19;64.36523;98224.89;;;;-83
2022/04/07 12:09:52;;;;;;;13.2;1.8;;;;;;;;;;;;;-82
2022/04/07 12:13:41;;;;;;;;;;;;;;;11.08;64.77051;98223.72;;;;-80
2022/04/07 12:18:38;;;;;;;;;;;;;;;11.08;64.62598;98241.22;;;;-82
2022/04/07 12:23:55;;;;;;;;;;;;;;;11.05;65.16602;98239.58;;;;-82
2022/04/07 12:28:47;;;;;;;;;;;;;;;11.05;65.3125;98244.17;;;;-83
2022/04/07 12:33:54;;;;;;;;;;;;;;;11.07;64.83789;98226.75;;;;-83
2022/04/07 12:39:03;;;;;;;;;;;;;;;11.1;63.81641;98225.55;;;;-82
2022/04/07 12:39:55;;;;;;;9;1.3;;;;;;;;;;;;;-84
2022/04/07 12:44:01;;;;;;;;;;;;;;;10.96;63.94141;98259.86;;;;-83
2022/04/07 12:48:59;;;;;;;;;;;;;;;10.89;64.63086;98258.61;;;;-83
2022/04/07 12:53:51;;;;;;;;;;;;;;;10.9;65.01172;98283.36;;;;-80
2022/04/07 12:58:53;;;;;;;;;;;;;;;10.9;65.58887;98271.63;;;;-83
2022/04/07 13:03:58;;;;;;;;;;;;;;;10.76;66.29102;98285.69;;;;-83
2022/04/07 13:08:48;;;;;;;;;;;;;;;10.68;66.90137;98298.34;;;;-82
2022/04/07 13:09:39;;;;;;;8.4;1.7;;;;;;;;;;;;;-82
2022/04/07 13:13:49;;;;;;;;;;;;;;;10.64;66.9834;98327.44;;;;-82
2022/04/07 13:18:47;;;;;;;;;;;;;;;10.53;67.52344;98317.41;;;;-82
2022/04/07 13:23:51;;;;;;;;;;;;;;;10.37;68.05273;98320.23;;;;-84
2022/04/07 13:28:50;;;;;;;;;;;;;;;10.28;68.32715;98350.59;;;;-83
2022/04/07 13:33:50;;;;;;;;;;;;;;;10.24;67.4668;98338.31;;;;-83
2022/04/07 13:38:57;;;;;;;;;;;;;;;10.11;67.3584;98334.4;;;;-81
2022/04/07 13:39:40;;;;;;;9.7;1.6;;;;;;;;;;;;;-82
2022/04/07 13:43:47;;;;;;;;;;;;;;;10.11;67.29102;98351.77;;;;-83
2022/04/07 13:48:50;;;;;;;;;;;;;;;10.13;67.17285;98331.59;;;;-84
2022/04/07 13:53:56;;;;;;;;;;;;;;;10.1;66.85645;98351.38;;;;-83
2022/04/07 13:59:00;;;;;;;;;;;;;;;9.98;67.25977;98353.82;;;;-82
2022/04/07 14:03:59;;;;;;;;;;;;;;;9.85;69.10254;98392.41;;;;-83
2022/04/07 14:07:23;;;;;;;;;;;;;;;9.72;70.08887;98392.08;;;;-82
2022/04/07 14:14:29;;;;;;;;;;;;;;;9.52;71.48633;98393.43;;;;-80
2022/04/07 14:19:30;;;;;;;;;;;;;;;9.5;71.81543;98408.25;;;;-81
2022/04/07 14:24:29;;;;;;;;;;;;;;;9.43;71.62598;98418.69;;;;-81
2022/04/07 14:29:29;;;;;;;;;;;;;;;9.34;71.94336;98426.09;;;;-83
2022/04/07 14:34:30;;;;;;;;;;;;;;;9.18;72.22559;98436.42;;;;-82
2022/04/07 14:39:32;;;;;;;;;;;;;;;9.06;72.62598;98427.7;;;;-82
2022/04/07 14:39:43;;;;;;;7.7;1.4;;;;;;;;;;;;;-82
2022/04/07 14:49:32;;;;;;;;;;;;;;;8.83;72.8418;98471.63;;;;-82
2022/04/07 14:54:43;;;;;;;;;;;;;;;8.7;73.00879;98494.02;;;;-83
2022/04/07 14:59:33;;;;;;;;;;;;;;;8.58;73.81543;98482.04;;;;-81
2022/04/07 15:04:30;;;;;;;;;;;;;;;8.46;73.97168;98479.55;;;;-82
2022/04/07 15:09:30;;;;;;;;;;;;;;;8.4;74.39258;98474.23;;;;-81
2022/04/07 15:09:42;;;;;;;4.4;1.2;;;;;;;;;;;;;-82
2022/04/07 15:14:39;;;;;;;;;;;;;;;8.46;74.47852;98487.01;;;;-82
2022/04/07 15:19:31;;;;;;;;;;;;;;;8.53;74.32617;98469.81;;;;-82
2022/04/07 15:24:39;;;;;;;;;;;;;;;8.58;74.30176;98468.24;;;;-82
2022/04/07 15:29:30;;;;;;;;;;;;;;;8.65;73.96094;98484.92;;;;-83
2022/04/07 15:34:31;;;;;;;;;;;;;;;8.69;73.98828;98476.35;;;;-83
2022/04/07 15:39:29;;;;;;;;;;;;;;;8.78;73.49609;98479.3;;;;-83
2022/04/07 15:39:53;;;;;;;7.1;1.2;;;;;;;;;;;;;-83
2022/04/07 15:44:32;;;;;;;;;;;;;;;8.83;73.14063;98493.27;;;;-81
2022/04/07 15:49:41;;;;;;;;;;;;;;;8.83;72.94043;98494.36;;;;-81
2022/04/07 15:54:33;;;;;;;;;;;;;;;8.78;73.25391;98499.48;;;;-81
2022/04/07 16:02:41;;;;;;;;;;;;;;;8.69;73.59082;98512.05;;;;-83
2022/04/07 16:07:46;;;;;;;;;;;;;;;8.72;73.99316;98508.09;;;;-81
2022/04/07 16:09:46;;;;;;;6.7;1.3;;;;;;;;;;;;;-81
2022/04/07 16:12:44;;;;;;;;;;;;;;;8.83;73.8252;98542.78;;;;-83
2022/04/07 16:17:46;;;;;;;;;;;;;;;8.87;73.45605;98535.01;;;;-82
2022/04/07 16:22:40;;;;;;;;;;;;;;;8.82;73.07227;98543.86;;;;-83
2022/04/07 16:28:02;;;;;;;;;;;;;;;;;;;;;
2022/04/07 16:32:41;;;;;;;;;;;;;;;8.63;72.09082;98591.53;;;;-82
2022/04/07 16:39:44;;;;;;;8.4;0.8;;;;;;;;;;;;;-81
2022/04/07 16:39:59;;;;;;;;;;;;;;;8.38;71.91797;98612.64;;;;-82
2022/04/07 16:44:45;;;;;;;;;;;;;;;8.26;72.31641;98600.37;;;;-81
2022/04/07 16:49:50;;;;;;;;;;;;;;;8.1;72.71875;98585.53;;;;-82
2022/04/07 16:54:45;;;;;;;;;;;;;;;7.99;72.82227;98582.73;;;;-81
2022/04/07 16:59:45;;;;;;;;;;;;;;;7.87;72.82617;98591.98;;;;-83
2022/04/07 17:04:47;;;;;;;;;;;;;;;7.78;73.11719;98614.7;;;;-82
2022/04/07 17:09:44;;;;;;;5.9;0.8;;;;;;;;;;;;;-82
2022/04/07 17:09:55;;;;;;;;;;;;;;;7.66;73.68066;98629.13;;;;-82
2022/04/07 17:14:48;;;;;;;;;;;;;;;7.59;74.17676;98636.27;;;;-82
2022/04/07 17:19:50;;;;;;;;;;;;;;;7.57;74.50195;98623.54;;;;-83
2022/04/07 17:24:45;;;;;;;;;;;;;;;7.56;74.40332;98641.51;;;;-82
2022/04/07 17:29:49;;;;;;;;;;;;;;;7.51;74.61426;98645.95;;;;-81
2022/04/07 17:34:48;;;;;;;;;;;;;;;7.45;74.29492;98653.27;;;;-83
2022/04/07 17:39:42;;;;;;;6.2;1.1;;;;;;;;;;;;;-82
2022/04/07 17:39:59;;;;;;;;;;;;;;;7.37;75.0293;98653;;;;-81
2022/04/07 17:44:48;;;;;;;;;;;;;;;7.32;75.38379;98653.52;;;;-82
2022/04/07 17:49:57;;;;;;;;;;;;;;;7.24;75.47949;98662.16;;;;-82
2022/04/07 17:54:48;;;;;;;;;;;;;;;7.2;75.50488;98681.67;;;;-81
2022/04/07 17:59:47;;;;;;;;;;;;;;;7.19;75.74707;98688.53;;;;-82
2022/04/07 18:04:59;;;;;;;;;;;;;;;7.18;75.76563;98711.64;;;;-82
2022/04/07 18:10:00;;;;;;;9;1.3;;;;;;;;;;;;;-82
2022/04/07 18:10:28;;;;;;;;;;;;;;;7.13;75.71484;98712.17;;;;-82
2022/04/07 18:15:05;;;;;;;;;;;;;;;7.17;75.80762;98726.84;;;;-81
2022/04/07 18:20:10;;;;;;;;;;;;;;;7.19;75.85449;98743.85;;;;-81
2022/04/07 18:28:17;;;;;;;;;;;;;;;7.17;75.88477;98772.14;;;;-82
2022/04/07 18:31:25;;;;;;;;;;;;;;;7.17;76.0498;98788.55;;;;-82
2022/04/07 18:36:28;;;;;;;;;;;;;;;7.14;76.13281;98788.66;;;;-83
2022/04/07 18:39:46;;;;;;;5.6;1;;;;;;;;;;;;;-80
2022/04/07 18:46:46;;;;;;;;;;;;;;;7.08;75.83594;98819.91;;;;-82
2022/04/07 18:51:25;;;;;;;;;;;;;;;7.05;76.01953;98840.69;;;;-82
2022/04/07 18:56:37;;;;;;;;;;;;;;;7.05;75.99609;98853.22;;;;-81
2022/04/07 19:10:07;;;;;;;7.7;1;;;;;;;;;;;;;-82
2022/04/07 19:10:41;;;;;;;;;;;;;;;6.98;75.97266;98875.48;;;;-82
2022/04/07 19:15:11;;;;;;;;;;;;;;;6.98;76.0293;98901.93;;;;-82
2022/04/07 19:20:09;;;;;;;;;;;;;;;6.96;76.28906;98932.98;;;;-83
2022/04/07 19:36:44;;;;;;;;;;;;;;;;;;;;;
2022/04/07 19:40:07;;;;;;;;;;;;;;;;;;;;;
2022/04/07 19:41:12;;;;;;;;;;;;;;;;;;;;;
2022/04/07 19:46:16;;;;;;;;;;;;;;;;;;;;;
2022/04/07 19:51:20;;;;;;;;;;;;;;;;;;;;;
2022/04/07 20:05:16;;;;;;;;;;;;;;;6.8;77.87305;99076.39;;;;-82
2022/04/07 20:09:51;;;;;;;11.9;1.7;;;;;;;;;;;;;-80
2022/04/07 20:15:13;;;;;;;;;;;;;;;6.78;77.60742;99099.5;;;;-81
2022/04/07 20:20:30;;;;;;;;;;;;;;;;;;;;;
2022/04/07 20:39:44;;;;;;;9.1;1.5;;;;;;;;;;;;;-82
2022/04/07 20:40:08;;;;;;;;;;;;;;;6.7;76.82422;99176.86;;;;-82
2022/04/07 20:45:07;;;;;;;;;;;;;;;6.69;76.53809;99196.94;;;;-84
2022/04/07 20:50:03;;;;;;;;;;;;;;;6.69;76.51563;99196.31;;;;-82
2022/04/07 20:55:08;;;;;;;;;;;;;;;6.69;76.4502;99223.61;;;;-82
2022/04/07 21:00:03;;;;;;;;;;;;;;;6.68;76.34961;99228.44;;;;-82
2022/04/07 21:05:03;;;;;;;;;;;;;;;6.66;76.67578;99246;;;;-82
2022/04/07 21:09:43;;;;;;;9.4;1.3;;;;;;;;;;;;;-82
2022/04/07 21:10:03;;;;;;;;;;;;;;;6.65;76.82617;99261.48;;;;-83
2022/04/07 21:15:02;;;;;;;;;;;;;;;6.62;76.6123;99269.61;;;;-82
2022/04/07 21:20:05;;;;;;;;;;;;;;;6.59;76.71777;99281.17;;;;-82
2022/04/07 21:25:03;;;;;;;;;;;;;;;6.54;76.37891;99286.75;;;;-85
2022/04/07 21:30:07;;;;;;;;;;;;;;;6.49;76.32715;99307.7;;;;-82
2022/04/07 21:35:04;;;;;;;;;;;;;;;6.44;76.40625;99323.4;;;;-82
2022/04/07 21:39:44;;;;;;;4.3;0.8;;;;;;;;;;;;;-82
2022/04/07 21:40:02;;;;;;;;;;;;;;;6.41;76.54297;99343.48;;;;-81
2022/04/07 21:45:02;;;;;;;;;;;;;;;6.4;76.70605;99354.41;;;;-82
2022/04/07 21:50:02;;;;;;;;;;;;;;;6.41;76.68555;99366.56;;;;-82
2022/04/07 21:55:03;;;;;;;;;;;;;;;6.4;76.72754;99379.74;;;;-82
2022/04/07 22:00:02;;;;;;;;;;;;;;;6.39;76.90137;99421.42;;;;-81
2022/04/07 22:05:05;;;;;;;;;;;;;;;6.3;76.96094;99403.55;;;;-83
2022/04/07 22:09:57;;;;;;;4.9;0.6;;;;;;;;;;;;;-83
2022/04/07 22:10:14;;;;;;;;;;;;;;;6.16;77.38574;99413.63;;;;-82
2022/04/07 22:15:05;;;;;;;;;;;;;;;6.09;78.00977;99435.64;;;;-83
2022/04/07 22:20:07;;;;;;;;;;;;;;;6.06;78.34277;99442.73;;;;-82
2022/04/07 22:25:13;;;;;;;;;;;;;;;6.06;78.90137;99460.59;;;;-84
2022/04/07 22:30:19;;;;;;;;;;;;;;;6.01;78.98242;99501.91;;;;-82
2022/04/07 22:35:09;;;;;;;;;;;;;;;5.95;78.85938;99497.23;;;;-81
2022/04/07 22:39:46;;;;;;;5;0.7;;;;;;;;;;;;;-82
2022/04/07 22:40:16;;;;;;;;;;;;;;;5.85;78.95117;99507;;;;-84
2022/04/07 22:45:25;;;;;;;;;;;;;;;5.81;79.22949;99529.3;;;;-82
2022/04/07 22:50:05;;;;;;;;;;;;;;;5.77;79.09082;99546.08;;;;-83
2022/04/07 22:55:03;;;;;;;;;;;;;;;5.7;79.20898;99550.36;;;;-82
2022/04/07 23:00:08;;;;;;;;;;;;;;;5.68;79.46875;99569.75;;;;-84
2022/04/07 23:05:04;;;;;;;;;;;;;;;5.65;79.57129;99583.5;;;;-82
2022/04/07 23:09:45;;;;;;;3.2;0.7;;;;;;;;;;;;;-82
2022/04/07 23:10:09;;;;;;;;;;;;;;;5.62;79.68652;99600.16;;;;-82
2022/04/07 23:15:07;;;;;;;;;;;;;;;5.6;79.98926;99639.97;;;;-83
2022/04/07 23:20:04;;;;;;;;;;;;;;;5.57;80.10449;99646.38;;;;-81
2022/04/07 23:25:09;;;;;;;;;;;;;;;5.52;80.05078;99661.75;;;;-83
2022/04/07 23:30:04;;;;;;;;;;;;;;;5.48;79.90039;99662.84;;;;-84
2022/04/07 23:35:10;;;;;;;;;;;;;;;5.41;79.95508;99673.17;;;;-83
2022/04/07 23:39:45;;;;;;;4.8;0.9;;;;;;;;;;;;;-83
2022/04/07 23:40:05;;;;;;;;;;;;;;;5.36;79.70313;99699.23;;;;-83
2022/04/07 23:45:05;;;;;;;;;;;;;;;5.29;79.78809;99700.02;;;;-83
2022/04/07 23:50:07;;;;;;;;;;;;;;;5.24;79.73828;99698.55;;;;-83
2022/04/07 23:55:07;;;;;;;;;;;;;;;5.2;79.4668;99708.61;;;;-82
